createdAt,value
2023-05-20T00:01:24.660Z,13.30
2023-05-20T00:03:56.437Z,13.28
2023-05-20T00:06:28.039Z,13.27
2023-05-20T00:09:00.300Z,13.25
2023-05-20T00:11:32.027Z,13.25
2023-05-20T00:14:03.634Z,13.25
2023-05-20T00:16:35.204Z,13.28
2023-05-20T00:19:07.362Z,13.26
2023-05-20T00:21:38.764Z,13.29
2023-05-20T00:24:10.316Z,13.30
2023-05-20T00:26:41.828Z,13.31
2023-05-20T00:29:13.542Z,13.34
2023-05-20T00:31:45.087Z,13.36
2023-05-20T00:34:16.666Z,13.36
2023-05-20T00:36:48.248Z,13.38
2023-05-20T00:39:19.839Z,13.38
2023-05-20T00:41:51.375Z,13.38
2023-05-20T00:44:24.761Z,13.38
2023-05-20T00:46:56.585Z,13.37
2023-05-20T00:49:28.252Z,13.36
2023-05-20T00:52:00.192Z,13.36
2023-05-20T00:54:32.246Z,13.36
2023-05-20T00:57:06.474Z,13.36
2023-05-20T00:59:39.135Z,13.33
2023-05-20T01:02:11.052Z,13.32
2023-05-20T01:04:47.141Z,13.30
2023-05-20T01:07:19.625Z,13.29
2023-05-20T01:09:52.569Z,13.29
2023-05-20T01:12:31.001Z,13.29
2023-05-20T01:15:07.049Z,13.29
2023-05-20T01:17:44.976Z,13.28
2023-05-20T01:20:18.852Z,13.28
2023-05-20T01:22:55.214Z,13.27
2023-05-20T01:25:27.097Z,13.27
2023-05-20T01:27:58.685Z,13.27
2023-05-20T01:30:35.665Z,13.24
2023-05-20T01:33:12.305Z,13.23
2023-05-20T01:35:44.135Z,13.21
2023-05-20T01:38:19.277Z,13.20
2023-05-20T01:40:51.765Z,13.21
2023-05-20T01:43:24.482Z,13.21
2023-05-20T01:45:56.073Z,13.21
2023-05-20T01:48:27.646Z,13.18
2023-05-20T01:50:59.314Z,13.19
2023-05-20T01:53:30.901Z,13.19
2023-05-20T01:56:02.420Z,13.18
2023-05-20T01:58:34.015Z,13.15
2023-05-20T02:01:05.636Z,13.17
2023-05-20T02:03:37.143Z,13.16
2023-05-20T02:06:08.738Z,13.13
2023-05-20T02:08:40.504Z,13.13
2023-05-20T02:11:12.012Z,13.14
2023-05-20T02:13:43.543Z,13.12
2023-05-20T02:16:15.135Z,13.11
2023-05-20T02:18:46.750Z,13.12
2023-05-20T02:21:18.676Z,13.11
2023-05-20T02:23:50.560Z,13.09
2023-05-20T02:26:22.691Z,13.07
2023-05-20T02:28:54.307Z,13.05
2023-05-20T02:31:26.036Z,13.05
2023-05-20T02:33:57.967Z,13.04
2023-05-20T02:36:29.579Z,13.05
2023-05-20T02:39:01.239Z,13.02
2023-05-20T02:41:32.791Z,13.02
2023-05-20T02:44:04.467Z,13.00
2023-05-20T02:46:36.171Z,13.00
2023-05-20T02:49:07.883Z,12.95
2023-05-20T02:51:40.333Z,12.98
2023-05-20T02:54:12.095Z,13.00
2023-05-20T02:56:43.652Z,13.00
2023-05-20T02:59:15.542Z,13.00
2023-05-20T03:01:47.191Z,13.00
2023-05-20T03:04:19.256Z,12.97
2023-05-20T03:06:52.118Z,12.92
2023-05-20T03:09:25.144Z,12.94
2023-05-20T03:11:56.743Z,12.95
2023-05-20T03:14:28.254Z,12.95
2023-05-20T03:17:00.164Z,12.95
2023-05-20T03:19:31.865Z,12.98
2023-05-20T03:22:03.681Z,12.98
2023-05-20T03:24:35.676Z,12.97
2023-05-20T03:27:07.244Z,12.98
2023-05-20T03:29:38.851Z,12.98
2023-05-20T03:32:11.051Z,12.98
2023-05-20T03:34:42.500Z,12.97
2023-05-20T03:37:14.141Z,12.95
2023-05-20T03:39:45.701Z,12.93
2023-05-20T03:42:17.261Z,12.93
2023-05-20T03:44:48.819Z,12.94
2023-05-20T03:47:20.373Z,12.93
2023-05-20T03:49:52.202Z,12.92
2023-05-20T03:52:23.734Z,12.93
2023-05-20T03:54:55.336Z,12.90
2023-05-20T03:57:26.952Z,12.88
2023-05-20T03:59:58.644Z,12.88
2023-05-20T04:02:30.442Z,12.88
2023-05-20T04:05:02.346Z,12.87
2023-05-20T04:07:33.944Z,12.89
2023-05-20T04:10:06.181Z,12.90
2023-05-20T04:12:38.399Z,12.88
2023-05-20T04:15:10.621Z,12.88
2023-05-20T04:17:42.702Z,12.87
2023-05-20T04:20:14.509Z,12.89
2023-05-20T04:22:46.097Z,12.86
2023-05-20T04:25:18.006Z,12.87
2023-05-20T04:27:50.014Z,12.85
2023-05-20T04:30:22.056Z,12.84
2023-05-20T04:32:54.578Z,12.86
2023-05-20T04:35:26.338Z,12.88
2023-05-20T04:37:57.975Z,12.92
2023-05-20T04:40:29.602Z,12.91
2023-05-20T04:43:01.275Z,12.92
2023-05-20T04:45:34.109Z,12.94
2023-05-20T04:48:06.079Z,12.97
2023-05-20T04:50:37.875Z,12.99
2023-05-20T04:53:09.737Z,13.04
2023-05-20T04:55:41.471Z,13.02
2023-05-20T04:58:15.624Z,12.97
2023-05-20T05:00:47.160Z,13.01
2023-05-20T05:03:19.022Z,13.07
2023-05-20T05:05:50.628Z,13.11
2023-05-20T05:08:22.164Z,13.12
2023-05-20T05:10:53.665Z,13.02
2023-05-20T05:13:25.258Z,13.08
2023-05-20T05:16:03.452Z,13.13
2023-05-20T05:18:35.113Z,13.11
2023-05-20T05:21:06.862Z,13.15
2023-05-20T05:23:38.461Z,13.18
2023-05-20T05:26:09.964Z,13.21
2023-05-20T05:28:43.363Z,13.22
2023-05-20T05:31:14.909Z,13.24
2023-05-20T05:33:46.481Z,13.22
2023-05-20T05:36:18.050Z,13.17
2023-05-20T05:38:49.565Z,13.19
2023-05-20T05:41:21.631Z,13.21
2023-05-20T05:43:54.025Z,13.25
2023-05-20T05:46:25.785Z,13.24
2023-05-20T05:48:58.913Z,13.25
2023-05-20T05:51:31.068Z,13.28
2023-05-20T05:54:02.636Z,13.31
2023-05-20T05:56:34.164Z,13.37
2023-05-20T05:59:05.962Z,13.40
2023-05-20T06:01:37.711Z,13.48
2023-05-20T06:04:09.394Z,13.52
2023-05-20T06:06:41.784Z,13.59
2023-05-20T06:09:13.319Z,13.66
2023-05-20T06:11:44.807Z,13.76
2023-05-20T06:14:16.344Z,13.83
2023-05-20T06:16:47.912Z,13.82
2023-05-20T06:19:19.500Z,14.02
2023-05-20T06:21:51.040Z,14.13
2023-05-20T06:24:24.365Z,14.23
2023-05-20T06:26:56.498Z,14.27
2023-05-20T06:29:29.251Z,14.31
2023-05-20T06:32:01.431Z,14.38
2023-05-20T06:34:32.792Z,14.39
2023-05-20T06:37:04.455Z,14.42
2023-05-20T06:39:36.232Z,14.48
2023-05-20T06:42:08.157Z,14.54
2023-05-20T06:44:39.705Z,14.65
2023-05-20T06:47:11.692Z,14.72
2023-05-20T06:49:47.157Z,14.72
2023-05-20T06:52:19.219Z,14.55
2023-05-20T06:54:50.752Z,14.45
2023-05-20T06:57:22.501Z,14.57
2023-05-20T06:59:54.037Z,14.64
2023-05-20T07:02:25.781Z,14.81
2023-05-20T07:04:57.321Z,14.95
2023-05-20T07:07:28.890Z,14.98
2023-05-20T07:10:00.525Z,14.92
2023-05-20T07:12:33.893Z,14.55
2023-05-20T07:15:07.884Z,14.76
2023-05-20T07:17:39.472Z,14.90
2023-05-20T07:20:11.147Z,15.00
2023-05-20T07:22:44.057Z,15.04
2023-05-20T07:25:15.602Z,15.09
2023-05-20T07:27:47.143Z,15.15
2023-05-20T07:30:18.750Z,15.19
2023-05-20T07:32:50.424Z,15.24
2023-05-20T07:35:22.143Z,15.20
2023-05-20T07:37:53.689Z,15.28
2023-05-20T07:40:25.273Z,15.32
2023-05-20T07:42:56.855Z,15.35
2023-05-20T07:45:28.442Z,15.30
2023-05-20T07:48:00.019Z,15.23
2023-05-20T07:50:31.626Z,15.23
2023-05-20T07:53:03.188Z,15.30
2023-05-20T07:55:39.265Z,15.34
2023-05-20T07:58:11.100Z,15.40
2023-05-20T08:00:44.582Z,15.40
2023-05-20T08:03:16.261Z,15.35
2023-05-20T08:05:47.970Z,15.43
2023-05-20T08:08:19.517Z,15.61
2023-05-20T08:10:51.823Z,15.72
2023-05-20T08:13:24.332Z,15.79
2023-05-20T08:15:56.195Z,15.71
2023-05-20T08:18:27.973Z,15.94
2023-05-20T08:20:59.797Z,15.99
2023-05-20T08:23:34.088Z,16.05
2023-05-20T08:26:07.711Z,16.12
2023-05-20T08:28:39.568Z,16.24
2023-05-20T08:31:11.343Z,16.36
2023-05-20T08:33:43.154Z,16.46
2023-05-20T08:36:14.695Z,16.33
2023-05-20T08:38:46.528Z,16.38
2023-05-20T08:41:18.462Z,16.60
2023-05-20T08:43:50.949Z,16.63
2023-05-20T08:46:23.241Z,16.29
2023-05-20T08:48:54.983Z,16.53
2023-05-20T08:51:27.780Z,16.78
2023-05-20T08:53:59.974Z,16.82
2023-05-20T08:56:32.793Z,16.85
2023-05-20T08:59:04.357Z,16.99
2023-05-20T09:01:43.225Z,16.90
2023-05-20T09:04:14.823Z,17.13
2023-05-20T09:06:49.666Z,17.22
2023-05-20T09:09:21.197Z,17.38
2023-05-20T09:11:52.732Z,17.49
2023-05-20T09:14:27.104Z,17.60
2023-05-20T09:16:59.455Z,17.70
2023-05-20T09:19:33.567Z,17.88
2023-05-20T09:22:06.022Z,17.98
2023-05-20T09:24:37.545Z,18.02
2023-05-20T09:27:10.355Z,18.18
2023-05-20T09:29:43.619Z,18.26
2023-05-20T09:32:16.354Z,18.43
2023-05-20T09:34:48.055Z,18.49
2023-05-20T09:37:21.677Z,18.53
2023-05-20T09:40:00.716Z,18.65
2023-05-20T09:42:41.653Z,18.80
2023-05-20T09:45:13.358Z,18.92
2023-05-20T09:47:46.140Z,19.07
2023-05-20T09:50:21.160Z,19.15
2023-05-20T09:52:53.954Z,19.24
2023-05-20T09:55:25.496Z,19.44
2023-05-20T09:58:01.859Z,19.57
2023-05-20T10:00:34.560Z,19.75
2023-05-20T10:03:06.698Z,19.96
2023-05-20T10:05:47.438Z,20.18
2023-05-20T10:08:46.524Z,20.65
2023-05-20T10:11:42.234Z,21.03
2023-05-20T10:14:28.756Z,21.17
2023-05-20T10:17:18.592Z,21.31
2023-05-20T10:19:51.116Z,21.25
2023-05-20T10:22:29.798Z,21.21
2023-05-20T10:25:08.437Z,21.21
2023-05-20T10:27:47.837Z,21.21
2023-05-20T10:30:21.319Z,20.97
2023-05-20T10:32:57.039Z,20.94
2023-05-20T10:35:29.368Z,21.06
2023-05-20T10:38:11.236Z,21.15
2023-05-20T10:40:42.908Z,21.15
2023-05-20T10:43:29.396Z,21.39
2023-05-20T10:46:03.198Z,21.67
2023-05-20T10:48:42.397Z,21.77
2023-05-20T10:51:14.855Z,21.66
2023-05-20T10:53:46.829Z,21.89
2023-05-20T10:56:19.427Z,21.99
2023-05-20T10:58:52.806Z,22.17
2023-05-20T11:01:26.807Z,22.26
2023-05-20T11:04:00.651Z,22.37
2023-05-20T11:06:33.784Z,22.30
2023-05-20T11:09:07.457Z,22.50
2023-05-20T11:11:39.035Z,22.82
2023-05-20T11:14:14.753Z,22.94
2023-05-20T11:16:46.981Z,23.28
2023-05-20T11:19:21.638Z,23.54
2023-05-20T11:21:53.679Z,23.83
2023-05-20T11:24:29.217Z,23.82
2023-05-20T11:27:02.210Z,23.99
2023-05-20T11:29:33.903Z,24.06
2023-05-20T11:32:06.147Z,24.00
2023-05-20T11:34:39.408Z,24.07
2023-05-20T11:37:11.727Z,24.25
2023-05-20T11:39:43.303Z,24.19
2023-05-20T11:42:16.308Z,24.44
2023-05-20T11:44:48.802Z,24.65
2023-05-20T11:49:59.939Z,25.01
2023-05-20T11:52:33.882Z,25.19
2023-05-20T11:55:11.097Z,25.09
2023-05-20T11:57:42.649Z,24.92
2023-05-20T12:00:14.228Z,25.00
2023-05-20T12:02:46.015Z,25.13
2023-05-20T12:05:17.923Z,24.91
2023-05-20T12:07:49.548Z,24.60
2023-05-20T12:10:21.049Z,24.63
2023-05-20T12:12:52.581Z,24.62
2023-05-20T12:15:24.853Z,24.54
2023-05-20T12:17:56.489Z,24.56
2023-05-20T12:20:28.992Z,24.61
2023-05-20T12:23:01.214Z,24.69
2023-05-20T12:25:32.862Z,24.65
2023-05-20T12:28:04.550Z,24.74
2023-05-20T12:30:36.325Z,24.68
2023-05-20T12:33:09.063Z,24.72
2023-05-20T12:35:42.377Z,24.89
2023-05-20T12:38:13.929Z,24.90
2023-05-20T12:40:45.475Z,25.09
2023-05-20T12:43:16.984Z,25.22
2023-05-20T12:45:48.730Z,25.37
2023-05-20T12:48:20.255Z,25.38
2023-05-20T12:50:51.802Z,25.37
2023-05-20T12:53:23.314Z,25.24
2023-05-20T12:55:55.030Z,25.12
2023-05-20T12:58:26.540Z,25.27
2023-05-20T13:00:58.106Z,25.65
2023-05-20T13:03:29.763Z,25.66
2023-05-20T13:06:01.388Z,25.95
2023-05-20T13:08:33.006Z,26.00
2023-05-20T13:11:04.590Z,25.85
2023-05-20T13:13:36.528Z,25.85
2023-05-20T13:16:08.220Z,25.72
2023-05-20T13:18:39.821Z,25.68
2023-05-20T13:21:11.372Z,25.65
2023-05-20T13:23:43.336Z,26.10
2023-05-20T13:26:15.471Z,26.23
2023-05-20T13:28:47.994Z,26.31
2023-05-20T13:31:19.715Z,26.16
2023-05-20T13:33:53.228Z,26.00
2023-05-20T13:36:24.983Z,25.78
2023-05-20T13:38:56.746Z,25.48
2023-05-20T13:41:28.364Z,25.42
2023-05-20T13:43:59.881Z,25.57
2023-05-20T13:46:31.527Z,25.43
2023-05-20T13:49:03.181Z,25.34
2023-05-20T13:51:34.826Z,25.36
2023-05-20T13:54:06.757Z,25.27
2023-05-20T13:56:38.811Z,25.21
2023-05-20T13:59:10.529Z,25.30
2023-05-20T14:01:45.691Z,25.08
2023-05-20T14:04:17.335Z,25.09
2023-05-20T14:06:48.968Z,24.73
2023-05-20T14:09:20.785Z,24.53
2023-05-20T14:11:52.250Z,24.60
2023-05-20T14:14:23.783Z,24.40
2023-05-20T14:16:55.509Z,24.31
2023-05-20T14:19:27.190Z,24.21
2023-05-20T14:22:01.712Z,24.25
2023-05-20T14:24:33.515Z,24.08
2023-05-20T14:27:05.081Z,23.92
2023-05-20T14:29:36.677Z,23.79
2023-05-20T14:32:09.669Z,23.74
2023-05-20T14:34:41.426Z,23.66
2023-05-20T14:37:13.104Z,23.53
2023-05-20T14:39:44.680Z,23.37
2023-05-20T14:42:16.817Z,23.30
2023-05-20T14:44:49.825Z,23.21
2023-05-20T14:47:22.361Z,23.25
2023-05-20T14:49:54.129Z,23.20
2023-05-20T14:52:25.760Z,23.22
2023-05-20T14:54:57.307Z,23.27
2023-05-20T14:57:28.929Z,23.26
2023-05-20T15:00:00.645Z,23.34
2023-05-20T15:02:32.280Z,23.42
2023-05-20T15:05:04.094Z,23.51
2023-05-20T15:07:35.634Z,23.64
2023-05-20T15:10:07.997Z,23.73
2023-05-20T15:12:39.915Z,23.77
2023-05-20T15:15:11.535Z,23.91
2023-05-20T15:17:43.190Z,23.99
2023-05-20T15:20:14.916Z,24.03
2023-05-20T15:22:48.123Z,24.20
2023-05-20T15:25:20.827Z,24.29
2023-05-20T15:27:52.468Z,24.25
2023-05-20T15:30:24.283Z,24.29
2023-05-20T15:32:56.120Z,24.29
2023-05-20T15:35:27.821Z,24.19
2023-05-20T15:37:59.557Z,24.13
2023-05-20T15:40:32.016Z,24.07
2023-05-20T15:43:04.344Z,23.98
2023-05-20T15:45:35.995Z,23.88
2023-05-20T15:48:08.370Z,23.84
2023-05-20T15:50:40.323Z,23.94
2023-05-20T15:53:11.744Z,23.95
2023-05-20T15:55:44.889Z,23.99
2023-05-20T15:58:16.696Z,24.06
2023-05-20T16:00:49.709Z,24.08
2023-05-20T16:03:21.683Z,24.36
2023-05-20T16:05:53.317Z,24.52
2023-05-20T16:08:24.934Z,24.60
2023-05-20T16:10:56.885Z,24.65
2023-05-20T16:13:28.420Z,24.69
2023-05-20T16:16:00.376Z,24.34
2023-05-20T16:18:32.175Z,24.39
2023-05-20T16:21:07.263Z,24.35
2023-05-20T16:23:38.877Z,23.91
2023-05-20T16:26:10.577Z,23.89
2023-05-20T16:28:42.113Z,23.71
2023-05-20T16:31:13.833Z,23.53
2023-05-20T16:33:45.620Z,23.41
2023-05-20T16:36:19.204Z,23.27
2023-05-20T16:38:51.030Z,23.09
2023-05-20T16:41:22.869Z,23.02
2023-05-20T16:43:54.415Z,22.91
2023-05-20T16:46:25.994Z,22.68
2023-05-20T16:48:57.674Z,22.44
2023-05-20T16:51:29.225Z,22.43
2023-05-20T16:54:00.947Z,22.29
2023-05-20T16:56:33.430Z,22.18
2023-05-20T16:59:05.025Z,22.12
2023-05-20T17:01:36.928Z,22.02
2023-05-20T17:04:08.953Z,21.92
2023-05-20T17:06:40.458Z,21.89
2023-05-20T17:09:12.180Z,21.78
2023-05-20T17:11:44.072Z,21.71
2023-05-20T17:14:15.514Z,21.65
2023-05-20T17:16:47.311Z,21.61
2023-05-20T17:19:18.841Z,21.44
2023-05-20T17:21:50.574Z,21.44
2023-05-20T17:24:22.099Z,21.44
2023-05-20T17:26:53.664Z,21.34
2023-05-20T17:29:25.333Z,21.33
2023-05-20T17:31:56.964Z,21.23
2023-05-20T17:34:28.540Z,21.20
2023-05-20T17:37:00.127Z,21.14
2023-05-20T17:39:31.657Z,21.09
2023-05-20T17:42:03.264Z,21.01
2023-05-20T17:44:34.862Z,20.96
2023-05-20T17:47:06.749Z,20.87
2023-05-20T17:49:38.208Z,20.77
2023-05-20T17:52:09.827Z,20.65
2023-05-20T17:54:41.600Z,20.59
2023-05-20T17:57:13.139Z,20.50
2023-05-20T17:59:45.523Z,20.43
2023-05-20T18:02:17.201Z,20.29
2023-05-20T18:04:48.822Z,20.21
2023-05-20T18:07:20.484Z,20.15
2023-05-20T18:09:52.107Z,20.11
2023-05-20T18:12:23.681Z,20.00
2023-05-20T18:14:55.420Z,19.99
2023-05-20T18:17:28.160Z,19.90
2023-05-20T18:19:59.794Z,19.83
2023-05-20T18:22:31.355Z,19.78
2023-05-20T18:25:03.141Z,19.71
2023-05-20T18:27:34.676Z,19.65
2023-05-20T18:30:07.232Z,19.57
2023-05-20T18:32:39.099Z,19.53
2023-05-20T18:35:11.197Z,19.48
2023-05-20T18:37:42.762Z,19.38
2023-05-20T18:40:14.359Z,19.34
2023-05-20T18:42:46.146Z,19.29
2023-05-20T18:45:17.724Z,19.23
2023-05-20T18:47:50.084Z,19.18
2023-05-20T18:50:21.727Z,19.14
2023-05-20T18:52:53.444Z,19.08
2023-05-20T18:55:25.077Z,19.04
2023-05-20T18:57:56.668Z,18.98
2023-05-20T19:00:28.275Z,18.93
2023-05-20T19:03:00.111Z,18.87
2023-05-20T19:05:31.710Z,18.84
2023-05-20T19:08:05.809Z,18.76
2023-05-20T19:10:37.520Z,18.75
2023-05-20T19:13:09.111Z,18.68
2023-05-20T19:15:40.781Z,18.64
2023-05-20T19:18:13.518Z,18.61
2023-05-20T19:20:45.102Z,18.57
2023-05-20T19:23:16.698Z,18.55
2023-05-20T19:25:48.236Z,18.51
2023-05-20T19:28:19.828Z,18.47
2023-05-20T19:30:51.407Z,18.42
2023-05-20T19:33:23.046Z,18.43
2023-05-20T19:35:54.621Z,18.39
2023-05-20T19:38:26.346Z,18.37
2023-05-20T19:40:57.984Z,18.32
2023-05-20T19:43:30.488Z,18.27
2023-05-20T19:46:02.235Z,18.25
2023-05-20T19:48:34.015Z,18.20
2023-05-20T19:51:05.722Z,18.19
2023-05-20T19:53:38.164Z,18.13
2023-05-20T19:56:09.781Z,18.08
2023-05-20T19:58:41.353Z,18.04
2023-05-20T20:01:13.128Z,18.05
2023-05-20T20:03:46.016Z,18.02
2023-05-20T20:06:17.626Z,18.01
2023-05-20T20:08:49.293Z,17.99
2023-05-20T20:11:21.404Z,17.94
2023-05-20T20:13:52.806Z,17.91
2023-05-20T20:16:24.522Z,17.91
2023-05-20T20:18:56.152Z,17.88
2023-05-20T20:21:27.895Z,17.85
2023-05-20T20:24:00.013Z,17.82
2023-05-20T20:26:31.461Z,17.77
2023-05-20T20:29:03.080Z,17.73
2023-05-20T20:31:34.698Z,17.71
2023-05-20T20:34:06.530Z,17.67
2023-05-20T20:36:39.609Z,17.62
2023-05-20T20:39:19.026Z,17.59
2023-05-20T20:41:50.823Z,17.55
2023-05-20T20:44:22.653Z,17.53
2023-05-20T20:46:55.044Z,17.50
2023-05-20T20:49:28.391Z,17.46
2023-05-20T20:52:00.280Z,17.44
2023-05-20T20:54:32.908Z,17.43
2023-05-20T20:57:04.533Z,17.37
2023-05-20T20:59:36.573Z,17.34
2023-05-20T21:02:08.186Z,17.30
2023-05-20T21:04:41.327Z,17.26
2023-05-20T21:07:18.229Z,17.22
2023-05-20T21:09:54.853Z,17.18
2023-05-20T21:12:26.541Z,17.14
2023-05-20T21:14:58.091Z,17.10
2023-05-20T21:17:29.722Z,17.10
2023-05-20T21:20:01.303Z,17.07
2023-05-20T21:22:32.879Z,17.02
2023-05-20T21:25:04.960Z,16.98
2023-05-20T21:27:36.558Z,16.90
2023-05-20T21:30:09.813Z,16.89
2023-05-20T21:32:41.434Z,16.86
2023-05-20T21:35:13.387Z,16.81
2023-05-20T21:37:44.934Z,16.80
2023-05-20T21:40:16.517Z,16.78
2023-05-20T21:42:50.896Z,16.73
2023-05-20T21:45:22.525Z,16.68
2023-05-20T21:47:54.202Z,16.61
2023-05-20T21:50:25.805Z,16.55
2023-05-20T21:52:57.417Z,16.49
2023-05-20T21:55:29.044Z,16.46
2023-05-20T21:58:00.496Z,16.42
2023-05-20T22:00:32.074Z,16.38
2023-05-20T22:03:03.661Z,16.37
2023-05-20T22:05:35.299Z,16.30
2023-05-20T22:08:07.573Z,16.24
2023-05-20T22:10:39.207Z,16.23
2023-05-20T22:13:11.011Z,16.22
2023-05-20T22:15:43.030Z,16.19
2023-05-20T22:18:14.879Z,16.17
2023-05-20T22:20:47.653Z,16.13
2023-05-20T22:23:19.050Z,16.08
2023-05-20T22:25:50.660Z,16.06
2023-05-20T22:28:23.493Z,16.00
2023-05-20T22:30:55.664Z,15.99
2023-05-20T22:33:27.056Z,15.93
2023-05-20T22:35:59.530Z,15.93
2023-05-20T22:38:31.081Z,15.90
2023-05-20T22:41:02.675Z,15.90
2023-05-20T22:43:34.304Z,15.90
2023-05-20T22:46:07.098Z,15.88
2023-05-20T22:48:38.725Z,15.88
2023-05-20T22:51:10.956Z,15.83
2023-05-20T22:53:42.480Z,15.80
2023-05-20T22:56:15.146Z,15.79
2023-05-20T22:58:46.801Z,15.77
2023-05-20T23:01:18.892Z,15.78
2023-05-20T23:03:52.549Z,15.75
2023-05-20T23:06:24.264Z,15.74
2023-05-20T23:08:55.807Z,15.72
2023-05-20T23:11:27.567Z,15.69
2023-05-20T23:13:59.138Z,15.69
2023-05-20T23:16:31.738Z,15.70
2023-05-20T23:19:03.429Z,15.68
2023-05-20T23:21:35.129Z,15.68
2023-05-20T23:24:06.716Z,15.61
2023-05-20T23:26:38.311Z,15.65
2023-05-20T23:29:10.445Z,15.68
2023-05-20T23:31:42.052Z,15.67
2023-05-20T23:34:13.797Z,15.68
2023-05-20T23:36:45.775Z,15.67
2023-05-20T23:39:18.421Z,15.65
2023-05-20T23:41:50.547Z,15.62
2023-05-20T23:44:22.153Z,15.59
2023-05-20T23:46:53.744Z,15.61
2023-05-20T23:49:27.164Z,15.60
2023-05-20T23:51:58.845Z,15.59
2023-05-20T23:54:34.221Z,15.51
2023-05-20T23:57:10.207Z,15.50
2023-05-20T23:59:43.005Z,15.48
